sensor_id;sensor_type;location;lat;lon;timestamp;P1;durP1;ratioP1;P2;durP2;ratioP2
41514;SDS011;27247;48.020;16.720;2022-07-24T00:00:21;8.10;;;6.87;;
41514;SDS011;27247;48.020;16.720;2022-07-24T00:04:31;8.00;;;6.65;;
41514;SDS011;27247;48.020;16.720;2022-07-24T00:08:41;7.53;;;6.47;;
41514;SDS011;27247;48.020;16.720;2022-07-24T00:12:52;6.65;;;5.88;;
41514;SDS011;27247;48.020;16.720;2022-07-24T00:17:02;7.17;;;5.83;;
41514;SDS011;27247;48.020;16.720;2022-07-24T00:21:12;11.20;;;7.20;;
41514;SDS011;27247;48.020;16.720;2022-07-24T00:25:23;9.17;;;6.00;;
41514;SDS011;27247;48.020;16.720;2022-07-24T00:29:33;6.60;;;5.82;;
41514;SDS011;27247;48.020;16.720;2022-07-24T00:33:43;7.10;;;6.20;;
41514;SDS011;27247;48.020;16.720;2022-07-24T00:37:54;11.50;;;6.77;;
41514;SDS011;27247;48.020;16.720;2022-07-24T00:42:04;10.43;;;6.55;;
41514;SDS011;27247;48.020;16.720;2022-07-24T00:46:15;7.85;;;6.50;;
41514;SDS011;27247;48.020;16.720;2022-07-24T00:50:28;11.13;;;7.13;;
41514;SDS011;27247;48.020;16.720;2022-07-24T00:54:39;12.18;;;6.35;;
41514;SDS011;27247;48.020;16.720;2022-07-24T00:58:49;9.27;;;7.07;;
41514;SDS011;27247;48.020;16.720;2022-07-24T01:03:00;9.60;;;7.05;;
41514;SDS011;27247;48.020;16.720;2022-07-24T01:07:10;11.27;;;6.80;;
41514;SDS011;27247;48.020;16.720;2022-07-24T01:11:21;9.35;;;6.25;;
41514;SDS011;27247;48.020;16.720;2022-07-24T01:15:32;9.43;;;6.40;;
41514;SDS011;27247;48.020;16.720;2022-07-24T01:19:42;9.43;;;7.43;;
41514;SDS011;27247;48.020;16.720;2022-07-24T01:23:52;11.15;;;8.30;;
41514;SDS011;27247;48.020;16.720;2022-07-24T01:28:03;11.02;;;8.40;;
41514;SDS011;27247;48.020;16.720;2022-07-24T01:32:13;14.35;;;9.93;;
41514;SDS011;27247;48.020;16.720;2022-07-24T01:36:24;14.85;;;8.85;;
41514;SDS011;27247;48.020;16.720;2022-07-24T01:40:35;10.80;;;7.18;;
41514;SDS011;27247;48.020;16.720;2022-07-24T01:44:46;12.85;;;6.93;;
41514;SDS011;27247;48.020;16.720;2022-07-24T01:48:56;10.63;;;7.72;;
41514;SDS011;27247;48.020;16.720;2022-07-24T01:53:07;10.50;;;6.72;;
41514;SDS011;27247;48.020;16.720;2022-07-24T01:57:17;11.23;;;7.57;;
41514;SDS011;27247;48.020;16.720;2022-07-24T02:01:28;9.15;;;7.60;;
41514;SDS011;27247;48.020;16.720;2022-07-24T02:05:39;11.50;;;7.97;;
41514;SDS011;27247;48.020;16.720;2022-07-24T02:09:49;9.60;;;7.45;;
41514;SDS011;27247;48.020;16.720;2022-07-24T02:14:00;7.67;;;6.87;;
41514;SDS011;27247;48.020;16.720;2022-07-24T02:18:10;7.35;;;6.55;;
41514;SDS011;27247;48.020;16.720;2022-07-24T02:22:21;9.07;;;6.60;;
41514;SDS011;27247;48.020;16.720;2022-07-24T02:26:31;9.73;;;7.53;;
41514;SDS011;27247;48.020;16.720;2022-07-24T02:30:41;8.27;;;7.32;;
41514;SDS011;27247;48.020;16.720;2022-07-24T02:34:53;10.32;;;6.43;;
41514;SDS011;27247;48.020;16.720;2022-07-24T02:39:03;9.57;;;7.73;;
41514;SDS011;27247;48.020;16.720;2022-07-24T02:43:13;8.80;;;6.93;;
41514;SDS011;27247;48.020;16.720;2022-07-24T02:47:24;7.95;;;7.13;;
41514;SDS011;27247;48.020;16.720;2022-07-24T02:51:34;9.13;;;7.40;;
41514;SDS011;27247;48.020;16.720;2022-07-24T02:55:44;9.23;;;7.73;;
41514;SDS011;27247;48.020;16.720;2022-07-24T02:59:55;10.23;;;8.37;;
41514;SDS011;27247;48.020;16.720;2022-07-24T03:04:05;9.67;;;8.30;;
41514;SDS011;27247;48.020;16.720;2022-07-24T03:08:15;9.90;;;7.72;;
41514;SDS011;27247;48.020;16.720;2022-07-24T03:12:26;13.60;;;8.18;;
41514;SDS011;27247;48.020;16.720;2022-07-24T03:16:36;13.63;;;8.70;;
41514;SDS011;27247;48.020;16.720;2022-07-24T03:20:47;9.50;;;7.25;;
41514;SDS011;27247;48.020;16.720;2022-07-24T03:24:57;11.90;;;8.05;;
41514;SDS011;27247;48.020;16.720;2022-07-24T03:29:08;11.88;;;8.70;;
41514;SDS011;27247;48.020;16.720;2022-07-24T03:33:18;11.03;;;8.27;;
41514;SDS011;27247;48.020;16.720;2022-07-24T03:37:28;11.03;;;8.73;;
41514;SDS011;27247;48.020;16.720;2022-07-24T03:41:39;10.15;;;8.70;;
41514;SDS011;27247;48.020;16.720;2022-07-24T03:45:49;10.43;;;8.13;;
41514;SDS011;27247;48.020;16.720;2022-07-24T03:49:59;11.60;;;7.40;;
41514;SDS011;27247;48.020;16.720;2022-07-24T03:54:10;11.98;;;8.60;;
41514;SDS011;27247;48.020;16.720;2022-07-24T03:58:20;11.30;;;8.40;;
41514;SDS011;27247;48.020;16.720;2022-07-24T04:02:30;13.67;;;9.87;;
41514;SDS011;27247;48.020;16.720;2022-07-24T04:06:41;14.98;;;9.35;;
41514;SDS011;27247;48.020;16.720;2022-07-24T04:10:51;13.45;;;10.30;;
41514;SDS011;27247;48.020;16.720;2022-07-24T04:15:07;13.32;;;9.48;;
41514;SDS011;27247;48.020;16.720;2022-07-24T04:19:18;16.40;;;12.60;;
41514;SDS011;27247;48.020;16.720;2022-07-24T04:23:29;14.73;;;11.77;;
41514;SDS011;27247;48.020;16.720;2022-07-24T04:27:39;14.87;;;12.90;;
41514;SDS011;27247;48.020;16.720;2022-07-24T04:31:49;18.63;;;13.63;;
41514;SDS011;27247;48.020;16.720;2022-07-24T04:36:00;17.75;;;14.50;;
41514;SDS011;27247;48.020;16.720;2022-07-24T04:40:10;19.52;;;13.35;;
41514;SDS011;27247;48.020;16.720;2022-07-24T04:44:21;15.48;;;12.93;;
41514;SDS011;27247;48.020;16.720;2022-07-24T04:48:32;21.07;;;13.67;;
41514;SDS011;27247;48.020;16.720;2022-07-24T04:52:42;15.93;;;13.77;;
41514;SDS011;27247;48.020;16.720;2022-07-24T04:56:53;16.00;;;12.68;;
41514;SDS011;27247;48.020;16.720;2022-07-24T05:01:03;14.67;;;13.00;;
41514;SDS011;27247;48.020;16.720;2022-07-24T05:05:13;14.60;;;12.10;;
41514;SDS011;27247;48.020;16.720;2022-07-24T05:09:24;14.18;;;12.57;;
41514;SDS011;27247;48.020;16.720;2022-07-24T05:13:34;15.15;;;12.70;;
41514;SDS011;27247;48.020;16.720;2022-07-24T05:17:44;14.83;;;12.10;;
41514;SDS011;27247;48.020;16.720;2022-07-24T05:21:54;13.73;;;12.43;;
41514;SDS011;27247;48.020;16.720;2022-07-24T05:26:05;16.07;;;12.27;;
41514;SDS011;27247;48.020;16.720;2022-07-24T05:30:16;14.38;;;12.27;;
41514;SDS011;27247;48.020;16.720;2022-07-24T05:34:26;14.43;;;11.43;;
41514;SDS011;27247;48.020;16.720;2022-07-24T05:38:36;14.00;;;12.50;;
41514;SDS011;27247;48.020;16.720;2022-07-24T05:42:47;12.35;;;10.77;;
41514;SDS011;27247;48.020;16.720;2022-07-24T05:46:57;12.67;;;10.43;;
41514;SDS011;27247;48.020;16.720;2022-07-24T05:51:07;11.95;;;10.07;;
41514;SDS011;27247;48.020;16.720;2022-07-24T05:55:18;11.67;;;10.33;;
41514;SDS011;27247;48.020;16.720;2022-07-24T05:59:28;14.60;;;11.03;;
41514;SDS011;27247;48.020;16.720;2022-07-24T06:03:39;13.48;;;10.77;;
41514;SDS011;27247;48.020;16.720;2022-07-24T06:07:49;12.82;;;11.45;;
41514;SDS011;27247;48.020;16.720;2022-07-24T06:11:59;13.32;;;11.30;;
41514;SDS011;27247;48.020;16.720;2022-07-24T06:16:10;13.97;;;11.07;;
41514;SDS011;27247;48.020;16.720;2022-07-24T06:20:20;15.13;;;10.10;;
41514;SDS011;27247;48.020;16.720;2022-07-24T06:24:30;15.27;;;11.23;;
41514;SDS011;27247;48.020;16.720;2022-07-24T06:28:41;12.55;;;11.00;;
41514;SDS011;27247;48.020;16.720;2022-07-24T06:32:53;12.67;;;10.83;;
41514;SDS011;27247;48.020;16.720;2022-07-24T06:37:05;12.55;;;10.50;;
41514;SDS011;27247;48.020;16.720;2022-07-24T06:41:15;13.18;;;10.25;;
41514;SDS011;27247;48.020;16.720;2022-07-24T06:45:25;12.30;;;9.93;;
41514;SDS011;27247;48.020;16.720;2022-07-24T06:49:36;11.93;;;10.47;;
41514;SDS011;27247;48.020;16.720;2022-07-24T06:53:46;11.02;;;9.80;;
41514;SDS011;27247;48.020;16.720;2022-07-24T06:57:57;11.65;;;10.45;;
41514;SDS011;27247;48.020;16.720;2022-07-24T07:02:10;14.05;;;11.80;;
41514;SDS011;27247;48.020;16.720;2022-07-24T07:06:20;12.85;;;11.32;;
41514;SDS011;27247;48.020;16.720;2022-07-24T07:10:31;12.63;;;10.90;;
41514;SDS011;27247;48.020;16.720;2022-07-24T07:14:41;12.48;;;11.07;;
41514;SDS011;27247;48.020;16.720;2022-07-24T07:18:52;14.77;;;11.37;;
41514;SDS011;27247;48.020;16.720;2022-07-24T07:23:03;15.85;;;10.85;;
41514;SDS011;27247;48.020;16.720;2022-07-24T07:27:13;12.83;;;10.80;;
41514;SDS011;27247;48.020;16.720;2022-07-24T07:31:24;10.88;;;9.80;;
41514;SDS011;27247;48.020;16.720;2022-07-24T07:35:36;13.77;;;11.07;;
41514;SDS011;27247;48.020;16.720;2022-07-24T07:39:46;12.33;;;10.60;;
41514;SDS011;27247;48.020;16.720;2022-07-24T07:43:57;13.80;;;10.23;;
41514;SDS011;27247;48.020;16.720;2022-07-24T07:48:08;12.05;;;10.25;;
41514;SDS011;27247;48.020;16.720;2022-07-24T07:52:19;12.50;;;10.43;;
41514;SDS011;27247;48.020;16.720;2022-07-24T07:56:29;11.13;;;9.97;;
41514;SDS011;27247;48.020;16.720;2022-07-24T08:00:41;11.30;;;10.10;;
41514;SDS011;27247;48.020;16.720;2022-07-24T08:04:51;13.20;;;10.37;;
41514;SDS011;27247;48.020;16.720;2022-07-24T08:09:02;11.17;;;9.97;;
41514;SDS011;27247;48.020;16.720;2022-07-24T08:13:13;13.93;;;10.77;;
41514;SDS011;27247;48.020;16.720;2022-07-24T08:17:24;12.05;;;9.93;;
41514;SDS011;27247;48.020;16.720;2022-07-24T08:21:35;13.27;;;9.67;;
41514;SDS011;27247;48.020;16.720;2022-07-24T08:25:45;10.93;;;9.43;;
41514;SDS011;27247;48.020;16.720;2022-07-24T08:29:55;10.40;;;9.20;;
41514;SDS011;27247;48.020;16.720;2022-07-24T08:34:06;10.57;;;8.67;;
41514;SDS011;27247;48.020;16.720;2022-07-24T08:38:16;9.10;;;8.18;;
41514;SDS011;27247;48.020;16.720;2022-07-24T08:42:26;9.97;;;8.87;;
41514;SDS011;27247;48.020;16.720;2022-07-24T08:46:37;9.53;;;8.63;;
41514;SDS011;27247;48.020;16.720;2022-07-24T08:50:49;8.60;;;7.80;;
41514;SDS011;27247;48.020;16.720;2022-07-24T08:55:00;8.10;;;7.30;;
41514;SDS011;27247;48.020;16.720;2022-07-24T08:59:15;10.50;;;7.43;;
41514;SDS011;27247;48.020;16.720;2022-07-24T09:03:37;8.02;;;7.18;;
41514;SDS011;27247;48.020;16.720;2022-07-24T09:08:27;7.18;;;6.20;;
41514;SDS011;27247;48.020;16.720;2022-07-24T09:12:32;6.50;;;5.65;;
41514;SDS011;27247;48.020;16.720;2022-07-24T09:16:44;5.95;;;5.13;;
41514;SDS011;27247;48.020;16.720;2022-07-24T09:20:55;5.20;;;4.70;;
41514;SDS011;27247;48.020;16.720;2022-07-24T09:25:19;5.38;;;3.90;;
41514;SDS011;27247;48.020;16.720;2022-07-24T09:29:34;5.13;;;4.00;;
41514;SDS011;27247;48.020;16.720;2022-07-24T09:33:45;3.72;;;3.42;;
41514;SDS011;27247;48.020;16.720;2022-07-24T09:37:56;3.83;;;3.33;;
41514;SDS011;27247;48.020;16.720;2022-07-24T09:42:08;6.93;;;4.28;;
41514;SDS011;27247;48.020;16.720;2022-07-24T09:46:18;7.03;;;4.18;;
41514;SDS011;27247;48.020;16.720;2022-07-24T09:50:33;4.47;;;4.05;;
41514;SDS011;27247;48.020;16.720;2022-07-24T09:58:57;4.95;;;4.47;;
41514;SDS011;27247;48.020;16.720;2022-07-24T10:03:10;5.50;;;5.00;;
41514;SDS011;27247;48.020;16.720;2022-07-24T10:07:28;5.85;;;5.22;;
41514;SDS011;27247;48.020;16.720;2022-07-24T10:11:40;4.45;;;4.05;;
41514;SDS011;27247;48.020;16.720;2022-07-24T10:20:10;5.28;;;4.00;;
41514;SDS011;27247;48.020;16.720;2022-07-24T10:28:46;5.30;;;4.40;;
41514;SDS011;27247;48.020;16.720;2022-07-24T10:33:09;4.53;;;4.10;;
41514;SDS011;27247;48.020;16.720;2022-07-24T10:41:30;7.18;;;3.95;;
41514;SDS011;27247;48.020;16.720;2022-07-24T10:49:53;5.22;;;4.18;;
41514;SDS011;27247;48.020;16.720;2022-07-24T10:54:03;8.43;;;4.43;;
41514;SDS011;27247;48.020;16.720;2022-07-24T10:58:27;4.68;;;4.28;;
41514;SDS011;27247;48.020;16.720;2022-07-24T11:02:37;4.83;;;4.13;;
41514;SDS011;27247;48.020;16.720;2022-07-24T11:07:09;4.27;;;3.90;;
41514;SDS011;27247;48.020;16.720;2022-07-24T11:11:22;4.63;;;4.10;;
41514;SDS011;27247;48.020;16.720;2022-07-24T11:16:09;4.20;;;3.80;;
41514;SDS011;27247;48.020;16.720;2022-07-24T11:20:22;4.95;;;4.05;;
41514;SDS011;27247;48.020;16.720;2022-07-24T11:24:32;6.00;;;3.95;;
41514;SDS011;27247;48.020;16.720;2022-07-24T11:29:02;4.15;;;3.67;;
41514;SDS011;27247;48.020;16.720;2022-07-24T11:33:32;3.70;;;3.40;;
41514;SDS011;27247;48.020;16.720;2022-07-24T11:37:43;5.80;;;4.00;;
41514;SDS011;27247;48.020;16.720;2022-07-24T11:41:56;4.40;;;4.00;;
41514;SDS011;27247;48.020;16.720;2022-07-24T11:46:08;4.22;;;3.83;;
41514;SDS011;27247;48.020;16.720;2022-07-24T11:50:19;4.43;;;4.03;;
41514;SDS011;27247;48.020;16.720;2022-07-24T11:54:31;4.15;;;3.75;;
41514;SDS011;27247;48.020;16.720;2022-07-24T11:58:42;5.03;;;3.78;;
41514;SDS011;27247;48.020;16.720;2022-07-24T12:02:53;3.87;;;3.57;;
41514;SDS011;27247;48.020;16.720;2022-07-24T12:07:10;4.72;;;3.53;;
41514;SDS011;27247;48.020;16.720;2022-07-24T12:11:23;5.85;;;3.97;;
41514;SDS011;27247;48.020;16.720;2022-07-24T12:15:34;5.20;;;3.57;;
41514;SDS011;27247;48.020;16.720;2022-07-24T12:19:51;3.55;;;3.20;;
41514;SDS011;27247;48.020;16.720;2022-07-24T12:24:03;5.40;;;3.47;;
41514;SDS011;27247;48.020;16.720;2022-07-24T12:28:17;4.07;;;3.63;;
41514;SDS011;27247;48.020;16.720;2022-07-24T12:32:31;4.95;;;3.90;;
41514;SDS011;27247;48.020;16.720;2022-07-24T12:36:41;3.83;;;3.37;;
41514;SDS011;27247;48.020;16.720;2022-07-24T12:41:00;4.78;;;3.50;;
41514;SDS011;27247;48.020;16.720;2022-07-24T12:45:18;4.78;;;3.30;;
41514;SDS011;27247;48.020;16.720;2022-07-24T12:49:39;4.63;;;3.73;;
41514;SDS011;27247;48.020;16.720;2022-07-24T12:53:54;4.43;;;3.47;;
41514;SDS011;27247;48.020;16.720;2022-07-24T12:58:05;4.90;;;3.40;;
41514;SDS011;27247;48.020;16.720;2022-07-24T13:02:20;4.03;;;3.60;;
41514;SDS011;27247;48.020;16.720;2022-07-24T13:06:37;4.28;;;3.42;;
41514;SDS011;27247;48.020;16.720;2022-07-24T13:10:52;3.70;;;3.40;;
41514;SDS011;27247;48.020;16.720;2022-07-24T13:15:02;7.13;;;4.33;;
41514;SDS011;27247;48.020;16.720;2022-07-24T13:19:13;6.45;;;3.72;;
41514;SDS011;27247;48.020;16.720;2022-07-24T13:23:25;4.97;;;3.45;;
41514;SDS011;27247;48.020;16.720;2022-07-24T13:27:36;4.07;;;3.67;;
41514;SDS011;27247;48.020;16.720;2022-07-24T13:31:46;4.38;;;3.97;;
41514;SDS011;27247;48.020;16.720;2022-07-24T13:35:56;4.33;;;3.93;;
41514;SDS011;27247;48.020;16.720;2022-07-24T13:40:07;6.03;;;3.67;;
41514;SDS011;27247;48.020;16.720;2022-07-24T13:44:21;5.60;;;4.07;;
41514;SDS011;27247;48.020;16.720;2022-07-24T13:48:31;4.93;;;3.53;;
41514;SDS011;27247;48.020;16.720;2022-07-24T13:52:42;3.63;;;3.33;;
41514;SDS011;27247;48.020;16.720;2022-07-24T13:56:52;4.57;;;4.17;;
41514;SDS011;27247;48.020;16.720;2022-07-24T14:01:06;5.97;;;4.43;;
41514;SDS011;27247;48.020;16.720;2022-07-24T14:05:16;4.95;;;4.45;;
41514;SDS011;27247;48.020;16.720;2022-07-24T14:09:27;4.95;;;3.80;;
41514;SDS011;27247;48.020;16.720;2022-07-24T14:13:38;4.70;;;4.25;;
41514;SDS011;27247;48.020;16.720;2022-07-24T14:17:48;6.83;;;4.20;;
41514;SDS011;27247;48.020;16.720;2022-07-24T14:21:59;4.72;;;4.15;;
41514;SDS011;27247;48.020;16.720;2022-07-24T14:26:09;4.50;;;4.10;;
41514;SDS011;27247;48.020;16.720;2022-07-24T14:30:19;4.87;;;3.93;;
41514;SDS011;27247;48.020;16.720;2022-07-24T14:34:30;4.63;;;3.97;;
41514;SDS011;27247;48.020;16.720;2022-07-24T14:38:40;3.83;;;3.47;;
41514;SDS011;27247;48.020;16.720;2022-07-24T14:42:51;5.53;;;4.13;;
41514;SDS011;27247;48.020;16.720;2022-07-24T14:47:02;4.70;;;4.20;;
41514;SDS011;27247;48.020;16.720;2022-07-24T14:51:14;3.53;;;3.22;;
41514;SDS011;27247;48.020;16.720;2022-07-24T14:55:25;5.90;;;4.10;;
41514;SDS011;27247;48.020;16.720;2022-07-24T14:59:35;5.15;;;3.92;;
41514;SDS011;27247;48.020;16.720;2022-07-24T15:03:45;5.10;;;4.22;;
41514;SDS011;27247;48.020;16.720;2022-07-24T15:07:56;5.73;;;4.17;;
41514;SDS011;27247;48.020;16.720;2022-07-24T15:12:06;3.87;;;3.57;;
41514;SDS011;27247;48.020;16.720;2022-07-24T15:16:17;5.85;;;4.00;;
41514;SDS011;27247;48.020;16.720;2022-07-24T15:20:27;4.50;;;4.10;;
41514;SDS011;27247;48.020;16.720;2022-07-24T15:24:37;5.17;;;4.13;;
41514;SDS011;27247;48.020;16.720;2022-07-24T15:28:48;5.20;;;3.67;;
41514;SDS011;27247;48.020;16.720;2022-07-24T15:32:58;7.07;;;4.07;;
41514;SDS011;27247;48.020;16.720;2022-07-24T15:37:10;5.32;;;3.92;;
41514;SDS011;27247;48.020;16.720;2022-07-24T15:41:20;5.00;;;3.83;;
41514;SDS011;27247;48.020;16.720;2022-07-24T15:45:31;5.17;;;3.73;;
41514;SDS011;27247;48.020;16.720;2022-07-24T15:49:41;3.60;;;3.30;;
41514;SDS011;27247;48.020;16.720;2022-07-24T15:53:51;4.60;;;4.17;;
41514;SDS011;27247;48.020;16.720;2022-07-24T15:58:02;4.77;;;3.70;;
41514;SDS011;27247;48.020;16.720;2022-07-24T16:02:12;4.20;;;3.63;;
41514;SDS011;27247;48.020;16.720;2022-07-24T16:06:23;3.83;;;3.20;;
41514;SDS011;27247;48.020;16.720;2022-07-24T16:10:33;9.10;;;3.87;;
41514;SDS011;27247;48.020;16.720;2022-07-24T16:14:44;4.37;;;3.97;;
41514;SDS011;27247;48.020;16.720;2022-07-24T16:18:54;6.75;;;3.83;;
41514;SDS011;27247;48.020;16.720;2022-07-24T16:23:05;5.90;;;3.88;;
41514;SDS011;27247;48.020;16.720;2022-07-24T16:27:15;4.57;;;3.97;;
41514;SDS011;27247;48.020;16.720;2022-07-24T16:31:25;4.40;;;4.03;;
41514;SDS011;27247;48.020;16.720;2022-07-24T16:35:36;4.20;;;3.80;;
41514;SDS011;27247;48.020;16.720;2022-07-24T16:39:46;5.13;;;4.03;;
41514;SDS011;27247;48.020;16.720;2022-07-24T16:43:57;5.20;;;4.20;;
41514;SDS011;27247;48.020;16.720;2022-07-24T16:48:07;4.35;;;3.60;;
41514;SDS011;27247;48.020;16.720;2022-07-24T16:52:18;6.78;;;4.55;;
41514;SDS011;27247;48.020;16.720;2022-07-24T16:56:28;4.83;;;3.80;;
41514;SDS011;27247;48.020;16.720;2022-07-24T17:00:38;4.40;;;4.03;;
41514;SDS011;27247;48.020;16.720;2022-07-24T17:04:49;7.40;;;4.53;;
41514;SDS011;27247;48.020;16.720;2022-07-24T17:08:59;4.73;;;4.10;;
41514;SDS011;27247;48.020;16.720;2022-07-24T17:13:09;4.57;;;4.18;;
41514;SDS011;27247;48.020;16.720;2022-07-24T17:17:20;4.85;;;4.32;;
41514;SDS011;27247;48.020;16.720;2022-07-24T17:21:30;6.97;;;4.43;;
41514;SDS011;27247;48.020;16.720;2022-07-24T17:25:42;5.65;;;4.22;;
41514;SDS011;27247;48.020;16.720;2022-07-24T17:29:52;4.18;;;3.75;;
41514;SDS011;27247;48.020;16.720;2022-07-24T17:34:03;6.60;;;4.37;;
41514;SDS011;27247;48.020;16.720;2022-07-24T17:38:13;6.60;;;4.13;;
41514;SDS011;27247;48.020;16.720;2022-07-24T17:42:23;6.10;;;4.63;;
41514;SDS011;27247;48.020;16.720;2022-07-24T17:46:34;6.90;;;4.88;;
41514;SDS011;27247;48.020;16.720;2022-07-24T17:50:44;5.03;;;4.27;;
41514;SDS011;27247;48.020;16.720;2022-07-24T17:54:55;6.18;;;4.18;;
41514;SDS011;27247;48.020;16.720;2022-07-24T17:59:05;5.97;;;4.70;;
41514;SDS011;27247;48.020;16.720;2022-07-24T18:03:16;6.73;;;4.10;;
41514;SDS011;27247;48.020;16.720;2022-07-24T18:07:26;5.20;;;4.70;;
41514;SDS011;27247;48.020;16.720;2022-07-24T18:11:37;4.77;;;4.23;;
41514;SDS011;27247;48.020;16.720;2022-07-24T18:15:48;6.10;;;4.00;;
41514;SDS011;27247;48.020;16.720;2022-07-24T18:19:58;5.95;;;3.90;;
41514;SDS011;27247;48.020;16.720;2022-07-24T18:24:08;5.63;;;4.40;;
41514;SDS011;27247;48.020;16.720;2022-07-24T18:28:19;5.20;;;4.13;;
41514;SDS011;27247;48.020;16.720;2022-07-24T18:32:29;4.83;;;4.33;;
41514;SDS011;27247;48.020;16.720;2022-07-24T18:36:40;5.23;;;3.80;;
41514;SDS011;27247;48.020;16.720;2022-07-24T18:40:51;4.80;;;4.00;;
41514;SDS011;27247;48.020;16.720;2022-07-24T18:45:01;7.00;;;4.07;;
41514;SDS011;27247;48.020;16.720;2022-07-24T18:49:12;9.68;;;4.03;;
41514;SDS011;27247;48.020;16.720;2022-07-24T18:53:22;9.23;;;4.60;;
41514;SDS011;27247;48.020;16.720;2022-07-24T18:57:33;6.93;;;4.20;;
41514;SDS011;27247;48.020;16.720;2022-07-24T19:01:43;5.78;;;4.20;;
41514;SDS011;27247;48.020;16.720;2022-07-24T19:05:53;5.67;;;4.23;;
41514;SDS011;27247;48.020;16.720;2022-07-24T19:10:04;11.97;;;4.47;;
41514;SDS011;27247;48.020;16.720;2022-07-24T19:14:15;5.57;;;3.90;;
41514;SDS011;27247;48.020;16.720;2022-07-24T19:18:26;12.43;;;4.13;;
41514;SDS011;27247;48.020;16.720;2022-07-24T19:22:36;4.47;;;3.83;;
41514;SDS011;27247;48.020;16.720;2022-07-24T19:26:46;4.28;;;3.85;;
41514;SDS011;27247;48.020;16.720;2022-07-24T19:30:57;6.57;;;4.70;;
41514;SDS011;27247;48.020;16.720;2022-07-24T19:35:07;5.43;;;3.97;;
41514;SDS011;27247;48.020;16.720;2022-07-24T19:39:17;10.07;;;4.50;;
41514;SDS011;27247;48.020;16.720;2022-07-24T19:43:28;7.67;;;4.87;;
41514;SDS011;27247;48.020;16.720;2022-07-24T19:47:39;8.02;;;4.65;;
41514;SDS011;27247;48.020;16.720;2022-07-24T19:51:49;7.60;;;4.10;;
41514;SDS011;27247;48.020;16.720;2022-07-24T19:56:00;6.07;;;4.53;;
41514;SDS011;27247;48.020;16.720;2022-07-24T20:00:10;10.07;;;4.72;;
41514;SDS011;27247;48.020;16.720;2022-07-24T20:04:21;4.85;;;4.43;;
41514;SDS011;27247;48.020;16.720;2022-07-24T20:08:31;6.32;;;4.75;;
41514;SDS011;27247;48.020;16.720;2022-07-24T20:12:41;5.63;;;4.60;;
41514;SDS011;27247;48.020;16.720;2022-07-24T20:16:52;5.07;;;4.40;;
41514;SDS011;27247;48.020;16.720;2022-07-24T20:21:02;6.40;;;4.90;;
41514;SDS011;27247;48.020;16.720;2022-07-24T20:25:13;6.57;;;4.90;;
41514;SDS011;27247;48.020;16.720;2022-07-24T20:29:26;6.57;;;4.85;;
41514;SDS011;27247;48.020;16.720;2022-07-24T20:33:36;5.00;;;4.45;;
41514;SDS011;27247;48.020;16.720;2022-07-24T20:37:47;4.93;;;4.43;;
41514;SDS011;27247;48.020;16.720;2022-07-24T20:41:57;6.37;;;4.90;;
41514;SDS011;27247;48.020;16.720;2022-07-24T20:46:09;7.53;;;4.90;;
41514;SDS011;27247;48.020;16.720;2022-07-24T20:50:19;6.30;;;4.73;;
41514;SDS011;27247;48.020;16.720;2022-07-24T20:54:30;6.47;;;4.60;;
41514;SDS011;27247;48.020;16.720;2022-07-24T20:58:40;7.67;;;4.97;;
41514;SDS011;27247;48.020;16.720;2022-07-24T21:02:50;5.10;;;4.70;;
41514;SDS011;27247;48.020;16.720;2022-07-24T21:07:00;8.47;;;5.40;;
41514;SDS011;27247;48.020;16.720;2022-07-24T21:11:11;6.47;;;4.77;;
41514;SDS011;27247;48.020;16.720;2022-07-24T21:15:21;7.60;;;5.45;;
41514;SDS011;27247;48.020;16.720;2022-07-24T21:19:31;9.10;;;5.30;;
41514;SDS011;27247;48.020;16.720;2022-07-24T21:23:42;5.85;;;4.53;;
41514;SDS011;27247;48.020;16.720;2022-07-24T21:27:52;6.87;;;4.83;;
41514;SDS011;27247;48.020;16.720;2022-07-24T21:32:02;8.27;;;5.07;;
41514;SDS011;27247;48.020;16.720;2022-07-24T21:36:13;6.03;;;5.40;;
41514;SDS011;27247;48.020;16.720;2022-07-24T21:40:23;7.33;;;5.13;;
41514;SDS011;27247;48.020;16.720;2022-07-24T21:44:34;6.80;;;4.77;;
41514;SDS011;27247;48.020;16.720;2022-07-24T21:48:44;4.90;;;4.30;;
41514;SDS011;27247;48.020;16.720;2022-07-24T21:52:54;6.90;;;4.97;;
41514;SDS011;27247;48.020;16.720;2022-07-24T21:57:05;5.90;;;5.10;;
41514;SDS011;27247;48.020;16.720;2022-07-24T22:01:15;5.77;;;5.13;;
41514;SDS011;27247;48.020;16.720;2022-07-24T22:05:26;5.75;;;4.82;;
41514;SDS011;27247;48.020;16.720;2022-07-24T22:09:36;6.67;;;5.03;;
41514;SDS011;27247;48.020;16.720;2022-07-24T22:13:46;7.40;;;4.83;;
41514;SDS011;27247;48.020;16.720;2022-07-24T22:17:57;6.10;;;5.03;;
41514;SDS011;27247;48.020;16.720;2022-07-24T22:22:07;7.53;;;5.20;;
41514;SDS011;27247;48.020;16.720;2022-07-24T22:26:17;5.50;;;4.75;;
41514;SDS011;27247;48.020;16.720;2022-07-24T22:30:28;5.90;;;4.43;;
41514;SDS011;27247;48.020;16.720;2022-07-24T22:34:38;10.23;;;4.95;;
41514;SDS011;27247;48.020;16.720;2022-07-24T22:38:49;7.65;;;5.03;;
41514;SDS011;27247;48.020;16.720;2022-07-24T22:42:59;7.43;;;5.53;;
41514;SDS011;27247;48.020;16.720;2022-07-24T22:47:09;7.22;;;5.10;;
41514;SDS011;27247;48.020;16.720;2022-07-24T22:51:20;9.32;;;5.68;;
41514;SDS011;27247;48.020;16.720;2022-07-24T22:55:31;5.95;;;4.97;;
41514;SDS011;27247;48.020;16.720;2022-07-24T22:59:43;8.23;;;5.13;;
41514;SDS011;27247;48.020;16.720;2022-07-24T23:03:53;5.85;;;4.85;;
41514;SDS011;27247;48.020;16.720;2022-07-24T23:08:04;6.60;;;5.57;;
41514;SDS011;27247;48.020;16.720;2022-07-24T23:12:15;6.93;;;5.22;;
41514;SDS011;27247;48.020;16.720;2022-07-24T23:16:25;6.43;;;4.87;;
41514;SDS011;27247;48.020;16.720;2022-07-24T23:20:35;9.33;;;5.00;;
41514;SDS011;27247;48.020;16.720;2022-07-24T23:24:46;7.83;;;5.43;;
41514;SDS011;27247;48.020;16.720;2022-07-24T23:28:56;7.13;;;5.13;;
41514;SDS011;27247;48.020;16.720;2022-07-24T23:33:06;7.73;;;5.13;;
41514;SDS011;27247;48.020;16.720;2022-07-24T23:37:17;5.77;;;4.63;;
41514;SDS011;27247;48.020;16.720;2022-07-24T23:41:27;6.00;;;5.20;;
41514;SDS011;27247;48.020;16.720;2022-07-24T23:45:37;6.38;;;5.10;;
41514;SDS011;27247;48.020;16.720;2022-07-24T23:49:48;9.40;;;5.07;;
41514;SDS011;27247;48.020;16.720;2022-07-24T23:53:58;5.80;;;4.90;;
41514;SDS011;27247;48.020;16.720;2022-07-24T23:58:08;5.97;;;5.33;;
